Time;durP1;ratioP1;P1;durP2;ratioP2;P2;SDS_P1;SDS_P2;PMS_P1;PMS_P2;Temp;Humidity;BMP_temperature;BMP_pressure;BME280_temperature;BME280_humidity;BME280_pressure;Samples;Min_cycle;Max_cycle;Signal;HPM_P1;HPM_P2
2023/05/13 00:02:03;;;;;;;3.28;2.00;;;;;;;19.11;52.29;100582.81;5071610;28;20131;-63
2023/05/13 00:04:32;;;;;;;3.88;2.00;;;;;;;19.10;52.24;100581.09;5071673;28;20052;-62
2023/05/13 00:07:02;;;;;;;3.83;2.28;;;;;;;19.10;52.45;100581.09;5071220;28;20051;-63
2023/05/13 00:09:30;;;;;;;5.07;1.95;;;;;;;19.09;52.34;100582.09;5071588;28;20072;-63
2023/05/13 00:11:58;;;;;;;3.22;1.83;;;;;;;19.10;52.41;100591.06;5071223;28;20049;-62
2023/05/13 00:14:26;;;;;;;3.60;1.95;;;;;;;19.09;52.36;100582.09;5071304;28;20057;-62
2023/05/13 00:16:54;;;;;;;4.13;2.13;;;;;;;19.08;52.33;100587.63;5071500;28;20110;-63
2023/05/13 00:19:22;;;;;;;3.17;1.80;;;;;;;19.08;52.20;100579.53;5071685;28;20074;-63
2023/05/13 00:21:55;;;;;;;3.53;2.00;;;;;;;19.08;52.09;100587.63;5071265;28;20041;-64
2023/05/13 00:24:23;;;;;;;2.87;1.80;;;;;;;19.07;52.25;100584.09;5071267;28;20115;-63
2023/05/13 00:26:51;;;;;;;3.30;1.90;;;;;;;19.07;52.04;100585.94;5071113;28;20045;-63
2023/05/13 00:29:19;;;;;;;4.25;2.03;;;;;;;19.07;52.21;100585.94;5071023;28;20102;-62
2023/05/13 00:31:50;;;;;;;3.35;2.00;;;;;;;19.07;52.14;100588.63;5071260;28;20494;-63
2023/05/13 00:34:18;;;;;;;3.72;2.10;;;;;;;19.05;52.17;100585.22;5071278;28;20124;-62
2023/05/13 00:36:46;;;;;;;3.28;1.83;;;;;;;19.05;52.22;100598.75;5071142;28;20486;-63
2023/05/13 00:39:16;;;;;;;3.90;1.90;;;;;;;19.05;51.91;100591.47;5071187;28;20087;-62
2023/05/13 00:41:44;;;;;;;3.92;2.03;;;;;;;19.05;52.10;100599.59;5071080;28;20041;-63
2023/05/13 00:44:12;;;;;;;3.05;1.70;;;;;;;19.04;52.37;100597.03;5071532;28;20072;-64
2023/05/13 00:46:42;;;;;;;3.03;2.10;;;;;;;19.05;52.12;100596.03;5071113;28;20040;-63
2023/05/13 00:49:10;;;;;;;3.13;2.00;;;;;;;19.04;52.28;100597.03;5071237;28;20049;-62
2023/05/13 00:51:38;;;;;;;3.35;2.10;;;;;;;19.03;52.28;100590.78;5071121;28;20056;-62
2023/05/13 00:54:07;;;;;;;3.53;1.90;;;;;;;19.02;52.29;100594.47;5070975;28;20044;-62
2023/05/13 00:56:37;;;;;;;2.42;1.70;;;;;;;19.02;52.13;100601.72;5071225;28;20051;-62
2023/05/13 00:59:05;;;;;;;2.97;1.80;;;;;;;19.02;51.98;100601.72;5071148;28;20049;-62
2023/05/13 01:01:42;;;;;;;4.03;1.85;;;;;;;19.02;52.15;100609.84;5071001;28;20048;-62
2023/05/13 01:04:20;;;;;;;3.55;2.08;;;;;;;19.01;52.00;100608.09;5070992;28;20075;-62
2023/05/13 01:06:56;;;;;;;2.95;1.95;;;;;;;19.01;52.10;100597.28;5070839;28;20099;-62
2023/05/13 01:09:34;;;;;;;3.17;2.00;;;;;;;19.01;52.17;100602.69;5071074;28;20048;-62
2023/05/13 01:12:08;;;;;;;3.40;1.90;;;;;;;18.99;52.25;100600.13;5070696;28;20061;-62
2023/05/13 01:14:41;;;;;;;3.63;2.10;;;;;;;18.99;51.96;100599.28;5070853;28;20101;-62
2023/05/13 01:17:14;;;;;;;2.58;1.65;;;;;;;18.99;52.25;100604.69;5070694;28;20049;-62
2023/05/13 01:19:44;;;;;;;4.30;2.13;;;;;;;18.99;52.24;100604.69;5071032;28;20091;-62
2023/05/13 01:22:14;;;;;;;4.30;1.95;;;;;;;18.98;51.89;100611.09;5070952;28;20114;-62
2023/05/13 01:24:42;;;;;;;3.13;2.00;;;;;;;18.98;52.03;100608.38;5069673;28;20087;-62
2023/05/13 01:27:10;;;;;;;3.10;1.80;;;;;;;18.97;52.11;100604.81;5070757;28;20095;-62
2023/05/13 01:29:39;;;;;;;2.45;1.80;;;;;;;18.97;52.06;100612.09;5070632;28;20051;-62
2023/05/13 01:32:09;;;;;;;3.08;1.70;;;;;;;18.96;52.11;100615.78;5070898;28;20048;-62
2023/05/13 01:34:39;;;;;;;3.08;2.00;;;;;;;18.97;52.29;100617.50;5070592;28;20075;-63
2023/05/13 01:37:07;;;;;;;2.60;1.80;;;;;;;18.95;52.26;100614.94;5071005;28;20452;-62
2023/05/13 01:39:38;;;;;;;3.60;2.08;;;;;;;18.95;52.35;100614.06;5070569;28;20453;-62
2023/05/13 01:42:06;;;;;;;3.20;1.65;;;;;;;18.95;52.00;100611.38;5073364;28;20048;-62
2023/05/13 01:44:35;;;;;;;2.90;1.90;;;;;;;18.94;52.36;100613.22;5073997;28;20453;-62
2023/05/13 01:47:03;;;;;;;3.65;1.85;;;;;;;18.93;52.05;100614.22;5074353;28;20044;-63
2023/05/13 01:49:31;;;;;;;3.45;1.75;;;;;;;18.94;51.93;100617.78;5074299;28;20106;-63
2023/05/13 01:51:59;;;;;;;3.53;1.80;;;;;;;18.94;52.12;100617.78;5074058;28;20098;-62
2023/05/13 01:54:27;;;;;;;4.63;1.92;;;;;;;18.93;51.92;100610.66;5073938;28;20493;-62
2023/05/13 01:56:57;;;;;;;3.08;1.88;;;;;;;18.92;51.99;100612.50;5073747;28;20048;-62
2023/05/13 01:59:25;;;;;;;2.78;1.73;;;;;;;18.92;51.88;100608.97;5073791;28;20048;-62
2023/05/13 02:01:53;;;;;;;2.72;1.70;;;;;;;18.92;52.05;100617.06;5073892;28;20102;-61
2023/05/13 02:04:21;;;;;;;3.90;1.73;;;;;;;18.91;52.25;100618.88;5073860;28;20123;-61
2023/05/13 02:06:49;;;;;;;3.70;1.85;;;;;;;18.91;52.00;100615.31;5073551;28;20094;-61
2023/05/13 02:09:17;;;;;;;3.28;2.00;;;;;;;18.90;52.12;100619.88;5073414;28;20489;-63
2023/05/13 02:11:46;;;;;;;3.58;1.80;;;;;;;18.90;52.01;100622.56;5073370;28;20044;-62
2023/05/13 02:14:15;;;;;;;2.92;1.77;;;;;;;18.90;52.24;100610.91;5073828;28;20222;-62
2023/05/13 02:16:43;;;;;;;2.90;1.88;;;;;;;18.90;52.24;100616.31;5073761;28;20045;-62
2023/05/13 02:19:12;;;;;;;2.50;1.63;;;;;;;18.88;51.98;100622.72;5073474;28;20098;-62
2023/05/13 02:21:42;;;;;;;3.25;2.03;;;;;;;18.87;51.98;100612.91;5073453;28;20049;-62
2023/05/13 02:24:10;;;;;;;3.20;1.80;;;;;;;18.87;52.29;100618.31;5073329;28;20474;-62
2023/05/13 02:26:40;;;;;;;2.55;1.60;;;;;;;18.87;52.27;100620.16;5073496;28;20051;-61
2023/05/13 02:29:08;;;;;;;2.92;1.80;;;;;;;18.87;52.21;100620.16;5073658;28;20051;-62
2023/05/13 02:31:37;;;;;;;2.40;1.63;;;;;;;18.86;51.99;100621.16;5073251;28;20101;-62
2023/05/13 02:34:06;;;;;;;3.05;1.77;;;;;;;18.85;51.94;100619.44;5073241;28;20048;-62
2023/05/13 02:36:34;;;;;;;3.28;1.70;;;;;;;18.86;51.96;100629.25;5073101;28;20052;-62
2023/05/13 02:39:02;;;;;;;4.43;1.80;;;;;;;18.85;51.99;100619.44;5073360;28;20143;-62
2023/05/13 02:41:30;;;;;;;3.63;1.92;;;;;;;18.84;51.90;100624.00;5073268;28;20048;-61
2023/05/13 02:43:58;;;;;;;3.10;1.98;;;;;;;18.84;52.20;100623.16;5073264;28;20142;-61
2023/05/13 02:46:26;;;;;;;3.38;2.00;;;;;;;18.84;52.07;100625.84;5072973;28;20070;-62
2023/05/13 02:48:56;;;;;;;3.03;1.75;;;;;;;18.83;52.01;100627.69;5072745;28;20052;-61
2023/05/13 02:51:24;;;;;;;2.88;1.80;;;;;;;18.82;52.23;100626.00;5072448;28;20083;-62
2023/05/13 02:53:52;;;;;;;4.57;2.08;;;;;;;18.82;51.90;100631.41;5072859;28;20059;-63
2023/05/13 02:56:20;;;;;;;3.13;1.90;;;;;;;18.81;51.98;100629.66;5072922;28;20413;-63
2023/05/13 02:58:48;;;;;;;3.35;1.90;;;;;;;18.82;52.14;100628.69;5072804;28;20054;-63
2023/05/13 03:01:17;;;;;;;2.50;1.67;;;;;;;18.80;52.09;100630.66;5072642;28;20127;-63
2023/05/13 03:03:45;;;;;;;3.22;1.80;;;;;;;18.80;51.95;100624.38;5072496;28;20044;-62
2023/05/13 03:06:14;;;;;;;2.88;1.83;;;;;;;18.80;52.22;100622.53;5072420;28;20489;-61
2023/05/13 03:08:42;;;;;;;3.10;1.88;;;;;;;18.80;52.23;100632.50;5072602;28;20051;-63
2023/05/13 03:11:10;;;;;;;2.95;1.70;;;;;;;18.79;52.23;100626.25;5072367;28;20048;-62
2023/05/13 03:13:39;;;;;;;3.10;1.90;;;;;;;18.79;52.32;100628.09;5072394;28;20047;-62
2023/05/13 03:16:07;;;;;;;3.75;1.80;;;;;;;18.78;52.08;100629.94;5072307;28;20078;-62
2023/05/13 03:18:35;;;;;;;2.88;1.80;;;;;;;18.78;51.98;100629.94;5072212;28;20060;-62
2023/05/13 03:21:06;;;;;;;2.90;1.70;;;;;;;18.78;51.82;100629.94;5072593;28;20093;-63
2023/05/13 03:23:36;;;;;;;2.92;1.85;;;;;;;18.77;52.04;100625.53;5072325;28;20055;-62
2023/05/13 03:26:04;;;;;;;2.88;1.73;;;;;;;18.76;51.88;100631.94;5072249;28;20076;-63
2023/05/13 03:28:32;;;;;;;2.85;1.75;;;;;;;18.76;52.06;100637.31;5072096;28;20113;-63
2023/05/13 03:31:00;;;;;;;2.63;1.77;;;;;;;18.75;52.00;100635.63;5072027;28;20162;-63
2023/05/13 03:33:28;;;;;;;3.35;2.00;;;;;;;18.74;51.78;100639.31;5072085;28;20040;-63
2023/05/13 03:35:56;;;;;;;2.80;1.88;;;;;;;18.74;52.20;100639.31;5072157;28;20044;-63
2023/05/13 03:38:25;;;;;;;2.33;1.60;;;;;;;18.74;52.11;100644.72;5071917;28;20048;-63
2023/05/13 03:40:54;;;;;;;3.90;1.80;;;;;;;18.73;51.85;100651.13;5072130;28;20123;-63
2023/05/13 03:43:22;;;;;;;2.97;1.70;;;;;;;18.73;52.17;100651.13;5071775;28;20424;-61
2023/05/13 03:45:50;;;;;;;2.60;1.90;;;;;;;18.73;52.15;100659.22;5071688;28;20478;-62
2023/05/13 03:48:19;;;;;;;2.67;1.73;;;;;;;18.74;52.05;100657.38;5071955;28;20401;-61
2023/05/13 03:50:47;;;;;;;5.40;2.20;;;;;;;18.72;51.84;100654.81;5071811;28;20045;-61
2023/05/13 03:53:16;;;;;;;2.95;2.00;;;;;;;18.72;52.16;100660.22;5072093;28;20103;-61
2023/05/13 03:55:44;;;;;;;4.13;1.80;;;;;;;18.71;51.81;100655.78;5071592;28;20076;-62
2023/05/13 03:58:16;;;;;;;3.22;1.80;;;;;;;18.71;52.14;100663.88;5071611;28;20044;-63
2023/05/13 04:00:45;;;;;;;2.92;1.83;;;;;;;18.70;52.09;100667.59;5072003;28;20041;-63
2023/05/13 04:03:14;;;;;;;2.58;1.70;;;;;;;18.70;52.26;100662.19;5071135;28;20102;-63
2023/05/13 04:05:43;;;;;;;2.75;1.92;;;;;;;18.70;52.14;100670.28;5071757;28;20092;-63
2023/05/13 04:08:11;;;;;;;3.00;1.70;;;;;;;18.69;51.86;100673.97;5071515;28;20048;-63
2023/05/13 04:10:40;;;;;;;3.30;1.80;;;;;;;18.69;51.73;100673.97;5071242;28;20060;-63
2023/05/13 04:13:08;;;;;;;3.08;1.88;;;;;;;18.69;52.10;100678.53;5071622;28;20044;-63
2023/05/13 04:15:37;;;;;;;2.80;1.52;;;;;;;18.69;51.89;100678.53;5071576;28;20390;-63
2023/05/13 04:18:05;;;;;;;2.83;1.70;;;;;;;18.69;51.89;100681.22;5071412;28;20468;-62
2023/05/13 04:20:34;;;;;;;3.17;1.80;;;;;;;18.67;52.06;100686.78;5071441;28;20110;-62
2023/05/13 04:23:02;;;;;;;3.78;2.03;;;;;;;18.66;52.19;100685.06;5071331;28;20045;-62
2023/05/13 04:25:30;;;;;;;3.40;1.98;;;;;;;18.67;52.06;100681.38;5071146;28;20045;-61
2023/05/13 04:27:58;;;;;;;2.95;1.85;;;;;;;18.67;52.05;100686.78;5071505;28;20045;-61
2023/05/13 04:30:27;;;;;;;3.25;1.90;;;;;;;18.66;51.99;100687.78;5071017;28;20519;-62
2023/05/13 04:32:56;;;;;;;2.60;1.77;;;;;;;18.66;51.96;100690.47;5071338;28;20053;-64
2023/05/13 04:35:25;;;;;;;1.98;1.50;;;;;;;18.65;52.12;100694.16;5071179;28;20171;-62
2023/05/13 04:37:53;;;;;;;2.92;1.70;;;;;;;18.65;51.90;100691.47;5070892;28;20049;-63
2023/05/13 04:40:21;;;;;;;3.50;1.70;;;;;;;18.65;51.84;100694.16;5071220;28;20102;-64
2023/05/13 04:42:53;;;;;;;3.15;1.70;;;;;;;18.64;52.19;100692.41;5071353;28;20056;-63
2023/05/13 04:45:22;;;;;;;2.63;1.70;;;;;;;18.63;51.85;100693.41;5071403;28;20041;-63
2023/05/13 04:47:50;;;;;;;2.25;1.60;;;;;;;18.64;51.89;100696.97;5071146;28;20055;-63
2023/05/13 04:50:20;;;;;;;2.55;1.60;;;;;;;18.64;51.79;100699.66;5071040;28;20068;-63
2023/05/13 04:52:49;;;;;;;2.80;1.77;;;;;;;18.63;51.99;100701.53;5071171;28;20067;-64
2023/05/13 04:55:17;;;;;;;3.13;1.73;;;;;;;18.63;51.87;100701.53;5071367;28;20455;-63
2023/05/13 04:57:45;;;;;;;2.90;1.80;;;;;;;18.63;52.16;100701.53;5070968;28;20098;-62
2023/05/13 05:00:15;;;;;;;2.45;1.70;;;;;;;18.62;51.84;100705.19;5071052;28;20444;-63
2023/05/13 05:02:43;;;;;;;2.72;1.85;;;;;;;18.62;52.10;100702.47;5071026;28;20449;-64
2023/05/13 05:05:11;;;;;;;4.03;1.80;;;;;;;18.62;52.05;100702.47;5070711;28;20136;-63
2023/05/13 05:07:41;;;;;;;2.75;1.70;;;;;;;18.62;52.07;100707.03;5071047;28;20090;-63
2023/05/13 05:10:09;;;;;;;3.30;1.90;;;;;;;18.61;52.02;100708.88;5070802;28;20457;-63
2023/05/13 05:12:37;;;;;;;3.13;1.90;;;;;;;18.62;51.89;100707.03;5070958;28;20087;-61
2023/05/13 05:15:14;;;;;;;2.85;1.65;;;;;;;18.61;51.77;100714.28;5072300;28;20400;-62
2023/05/13 05:17:42;;;;;;;3.33;1.88;;;;;;;18.60;51.82;100713.44;5074585;28;20044;-63
2023/05/13 05:20:12;;;;;;;2.70;1.55;;;;;;;18.60;52.11;100715.28;5074621;28;20048;-63
2023/05/13 05:22:41;;;;;;;3.53;1.80;;;;;;;18.61;52.22;100719.69;5074623;28;20072;-62
2023/05/13 05:25:10;;;;;;;3.40;1.90;;;;;;;18.60;51.90;100717.97;5074484;28;20049;-61
2023/05/13 05:27:38;;;;;;;2.35;1.60;;;;;;;18.59;51.96;100716.25;5074640;28;20053;-62
2023/05/13 05:30:08;;;;;;;3.00;1.80;;;;;;;18.60;51.89;100717.97;5074439;28;20044;-63
2023/05/13 05:32:36;;;;;;;3.53;1.70;;;;;;;18.60;52.09;100715.28;5074441;28;20508;-64
2023/05/13 05:35:06;;;;;;;2.75;1.80;;;;;;;18.59;52.18;100714.41;5074522;28;20048;-63
2023/05/13 05:37:35;;;;;;;3.45;2.00;;;;;;;18.59;52.17;100716.25;5074303;28;20045;-63
2023/05/13 05:40:06;;;;;;;2.88;1.65;;;;;;;18.60;52.18;100720.69;5074288;28;20067;-63
2023/05/13 05:42:34;;;;;;;2.40;1.60;;;;;;;18.60;51.96;100728.78;5074237;28;20079;-62
2023/05/13 05:45:02;;;;;;;3.60;1.70;;;;;;;18.59;52.08;100721.66;5074208;28;20066;-61
2023/05/13 05:47:30;;;;;;;3.55;1.80;;;;;;;18.58;52.11;100715.41;5074183;28;20378;-62
2023/05/13 05:50:00;;;;;;;2.85;1.70;;;;;;;18.58;52.02;100719.97;5074065;28;20059;-62
2023/05/13 05:52:28;;;;;;;2.92;1.60;;;;;;;18.58;51.95;100719.97;5074148;28;20409;-62
2023/05/13 05:54:56;;;;;;;3.45;1.85;;;;;;;18.58;51.91;100714.56;5073832;28;20091;-62
2023/05/13 05:57:25;;;;;;;3.28;1.90;;;;;;;18.58;51.92;100719.97;5073671;28;20452;-62
2023/05/13 05:59:53;;;;;;;3.38;1.67;;;;;;;18.57;51.94;100719.09;5074038;28;20049;-62
2023/05/13 06:02:21;;;;;;;2.33;1.58;;;;;;;18.57;52.10;100724.50;5073991;28;20076;-62
2023/05/13 06:04:49;;;;;;;2.08;1.60;;;;;;;18.57;51.89;100723.66;5073754;28;20063;-62
2023/05/13 06:07:18;;;;;;;1.92;1.50;;;;;;;18.58;51.94;100730.75;5073727;28;20052;-62
2023/05/13 06:09:46;;;;;;;2.60;1.70;;;;;;;18.58;52.03;100733.47;5073455;28;20078;-61
2023/05/13 06:12:14;;;;;;;2.92;1.90;;;;;;;18.58;51.91;100736.16;5073888;28;20051;-61
2023/05/13 06:14:44;;;;;;;2.83;1.70;;;;;;;18.57;52.20;100734.47;5073551;28;20079;-61
2023/05/13 06:17:13;;;;;;;3.20;2.00;;;;;;;18.57;52.06;100735.31;5073662;28;20102;-61
2023/05/13 06:19:41;;;;;;;3.00;1.90;;;;;;;18.57;52.03;100735.31;5073496;28;20090;-61
2023/05/13 06:22:10;;;;;;;2.75;1.80;;;;;;;18.57;52.05;100734.47;5073297;28;20044;-61
2023/05/13 06:24:41;;;;;;;3.45;1.80;;;;;;;18.57;52.18;100734.47;5073397;28;20056;-61
2023/05/13 06:27:10;;;;;;;3.30;1.80;;;;;;;18.56;52.14;100738.16;5072909;28;20048;-62
2023/05/13 06:29:38;;;;;;;3.78;1.80;;;;;;;18.56;51.97;100740.84;5073471;28;20049;-62
2023/05/13 06:32:08;;;;;;;3.88;1.90;;;;;;;18.56;51.88;100740.84;5073221;28;20049;-61
2023/05/13 06:34:37;;;;;;;2.90;1.73;;;;;;;18.56;52.13;100738.16;5073083;28;20072;-61
2023/05/13 06:37:05;;;;;;;2.33;1.60;;;;;;;18.56;52.11;100739.00;5073227;28;20040;-62
2023/05/13 06:39:33;;;;;;;3.13;1.90;;;;;;;18.56;52.08;100743.56;5073239;28;20055;-61
2023/05/13 06:42:01;;;;;;;3.38;1.95;;;;;;;18.55;52.03;100748.09;5073250;28;20131;-61
2023/05/13 06:44:29;;;;;;;3.10;2.00;;;;;;;18.56;52.29;100746.25;5073107;28;20052;-61
2023/05/13 06:46:57;;;;;;;3.50;1.83;;;;;;;18.55;52.10;100745.41;5073065;28;20052;-61
2023/05/13 06:49:27;;;;;;;2.28;1.73;;;;;;;18.55;52.28;100741.84;5072882;28;20044;-62
2023/05/13 06:51:55;;;;;;;2.85;1.95;;;;;;;18.56;51.98;100748.94;5072851;28;20520;-62
2023/05/13 06:54:25;;;;;;;3.00;1.90;;;;;;;18.56;52.17;100748.94;5072968;28;20086;-63
2023/05/13 06:56:53;;;;;;;2.90;1.70;;;;;;;18.55;51.98;100745.41;5072642;28;20482;-62
2023/05/13 06:59:21;;;;;;;4.03;1.90;;;;;;;18.55;52.20;100752.66;5072599;28;20040;-62
2023/05/13 07:01:49;;;;;;;3.40;1.88;;;;;;;18.55;51.86;100741.84;5072529;28;20090;-62
2023/05/13 07:04:17;;;;;;;2.83;1.80;;;;;;;18.55;52.14;100736.44;5072358;28;20044;-62
2023/05/13 07:06:47;;;;;;;2.78;1.80;;;;;;;18.56;52.21;100738.16;5072687;28;20472;-67
2023/05/13 07:09:15;;;;;;;2.83;1.98;;;;;;;18.55;51.92;100741.84;5071229;28;20044;-63
2023/05/13 07:11:44;;;;;;;3.38;1.90;;;;;;;18.55;51.99;100747.25;5075812;28;20511;-63
2023/05/13 07:14:12;;;;;;;2.35;1.60;;;;;;;18.55;52.06;100752.66;5071849;28;20041;-62
2023/05/13 07:16:40;;;;;;;4.60;2.00;;;;;;;18.55;52.31;100744.53;5071617;28;20511;-63
2023/05/13 07:19:08;;;;;;;2.80;1.77;;;;;;;18.54;52.38;100748.25;5072281;28;20610;-63
2023/05/13 07:21:36;;;;;;;2.88;1.83;;;;;;;18.55;52.60;100747.25;5071837;28;20131;-63
2023/05/13 07:24:06;;;;;;;3.45;2.10;;;;;;;18.54;52.69;100746.38;5072799;28;20120;-63
2023/05/13 07:26:34;;;;;;;4.03;1.90;;;;;;;18.55;52.54;100749.94;5071691;28;20045;-63
2023/05/13 07:29:02;;;;;;;2.90;1.88;;;;;;;18.55;52.29;100749.94;5072254;28;20072;-63
2023/05/13 07:31:30;;;;;;;3.80;2.20;;;;;;;18.55;52.42;100756.22;5072136;28;20833;-63
2023/05/13 07:33:58;;;;;;;3.00;1.90;;;;;;;18.55;52.70;100753.50;5072134;28;20106;-63
2023/05/13 07:36:26;;;;;;;4.60;1.75;;;;;;;18.56;52.64;100754.34;5071554;28;20496;-63
2023/05/13 07:38:55;;;;;;;3.25;2.00;;;;;;;18.56;52.86;100751.66;5071073;28;20056;-63
2023/05/13 07:41:26;;;;;;;6.03;2.00;;;;;;;18.56;52.73;100757.06;5071950;28;20076;-64
2023/05/13 07:43:54;;;;;;;3.38;1.80;;;;;;;18.55;52.97;100752.66;5071573;28;20044;-63
2023/05/13 07:46:22;;;;;;;3.38;1.80;;;;;;;18.55;52.83;100764.31;5071223;28;20051;-62
2023/05/13 07:48:50;;;;;;;3.33;1.90;;;;;;;18.55;52.74;100764.31;5071167;28;20072;-63
2023/05/13 07:51:18;;;;;;;5.15;2.00;;;;;;;18.55;53.09;100764.31;5070845;28;20044;-62
2023/05/13 07:53:47;;;;;;;2.75;1.90;;;;;;;18.55;52.70;100764.31;5070824;28;20616;-63
2023/05/13 07:56:15;;;;;;;4.40;1.90;;;;;;;18.56;52.83;100770.56;5069033;28;20045;-62
2023/05/13 07:58:44;;;;;;;3.47;1.98;;;;;;;18.55;53.00;100764.31;5070984;28;20059;-62
2023/05/13 08:01:13;;;;;;;3.63;2.00;;;;;;;18.55;52.95;100764.31;5071431;28;20040;-62
2023/05/13 08:03:41;;;;;;;3.95;1.85;;;;;;;18.56;52.89;100770.56;5071105;28;20131;-62
2023/05/13 08:06:09;;;;;;;2.65;1.80;;;;;;;18.57;53.09;100769.56;5071638;28;20041;-63
2023/05/13 08:08:37;;;;;;;2.83;1.92;;;;;;;18.57;52.80;100777.69;5071671;28;20051;-64
2023/05/13 08:11:05;;;;;;;3.03;2.00;;;;;;;18.57;52.83;100778.53;5070985;28;20049;-62
2023/05/13 08:13:33;;;;;;;3.03;1.70;;;;;;;18.58;52.79;100784.78;5071638;28;20056;-65
2023/05/13 08:16:05;;;;;;;3.70;2.20;;;;;;;18.58;52.91;100790.19;5071527;28;20060;-62
2023/05/13 08:18:33;;;;;;;8.07;2.58;;;;;;;18.58;53.24;100790.19;5071436;28;20052;-62
2023/05/13 08:21:02;;;;;;;5.47;2.38;;;;;;;18.57;53.34;100789.34;5071187;28;20086;-62
2023/05/13 08:23:30;;;;;;;5.60;2.70;;;;;;;18.56;53.29;100790.34;5071102;28;20048;-61
2023/05/13 08:26:12;;;;;;;8.15;2.78;;;;;;;18.56;53.31;100792.19;5071509;28;20045;-66
2023/05/13 08:28:40;;;;;;;10.63;3.10;;;;;;;18.56;52.96;100800.28;5071514;28;20044;-61
2023/05/13 08:31:13;;;;;;;5.55;3.00;;;;;;;18.56;52.94;100801.13;5071228;28;20392;-61
2023/05/13 08:33:41;;;;;;;9.80;3.20;;;;;;;18.57;53.03;100802.00;5071189;28;20147;-60
2023/05/13 08:36:10;;;;;;;10.48;3.60;;;;;;;18.58;53.11;100806.41;5071221;28;20051;-65
2023/05/13 08:38:38;;;;;;;8.13;3.08;;;;;;;18.57;53.11;100810.09;5071105;28;20079;-64
2023/05/13 08:41:06;;;;;;;7.70;2.92;;;;;;;18.57;53.11;100804.69;5071088;28;20045;-62
2023/05/13 08:43:37;;;;;;;10.65;3.25;;;;;;;18.58;53.39;100806.41;5071134;28;20071;-61
2023/05/13 08:46:08;;;;;;;10.13;3.58;;;;;;;18.58;53.25;100809.09;5071199;28;20049;-62
2023/05/13 08:48:40;;;;;;;9.48;3.60;;;;;;;18.58;53.07;100811.81;5071185;28;20048;-61
2023/05/13 08:51:09;;;;;;;10.57;3.40;;;;;;;18.58;53.23;100809.09;5073819;28;20149;-63
2023/05/13 08:53:39;;;;;;;9.52;3.25;;;;;;;18.58;52.96;100806.41;5075102;28;20055;-63
2023/05/13 08:56:09;;;;;;;11.82;3.35;;;;;;;18.58;53.16;100811.81;5074553;28;20119;-64
2023/05/13 08:58:37;;;;;;;13.85;3.55;;;;;;;18.58;53.12;100812.66;5075117;28;20051;-63
2023/05/13 09:01:07;;;;;;;10.55;3.40;;;;;;;18.59;53.03;100808.13;5074852;28;20051;-62
2023/05/13 09:03:41;;;;;;;10.70;3.75;;;;;;;18.58;53.00;100803.72;5074786;28;20505;-62
2023/05/13 09:06:10;;;;;;;12.70;3.40;;;;;;;18.58;53.21;100807.25;5074934;28;20758;-62
2023/05/13 09:08:39;;;;;;;10.77;3.63;;;;;;;18.58;53.00;100807.25;5074910;28;20106;-63
2023/05/13 09:11:07;;;;;;;11.93;3.38;;;;;;;18.59;53.20;100811.69;5074424;28;20053;-63
2023/05/13 09:13:35;;;;;;;10.70;3.65;;;;;;;18.60;53.27;100809.81;5074484;28;20098;-63
2023/05/13 09:16:03;;;;;;;14.07;3.63;;;;;;;18.59;53.10;100810.81;5074448;28;20507;-63
2023/05/13 09:18:32;;;;;;;13.93;3.72;;;;;;;18.60;53.32;100812.53;5074560;28;20509;-63
2023/05/13 09:21:23;;;;;;;10.50;3.20;;;;;;;18.60;53.24;100805.28;5074646;28;20083;-62
2023/05/13 09:23:56;;;;;;;9.35;3.60;;;;;;;18.61;52.96;100803.44;5074422;28;20052;-62
2023/05/13 09:26:30;;;;;;;9.13;3.30;;;;;;;18.63;53.26;100811.44;5074388;28;20101;-63
2023/05/13 09:29:17;;;;;;;9.25;3.60;;;;;;;18.62;52.99;100812.41;5074380;28;20051;-63
2023/05/13 09:31:47;;;;;;;7.55;3.15;;;;;;;18.63;53.20;100809.59;5074337;28;20056;-61
2023/05/13 09:34:24;;;;;;;10.65;3.80;;;;;;;18.65;52.98;100806.78;5074328;28;20047;-62
2023/05/13 09:36:57;;;;;;;10.98;3.50;;;;;;;18.66;52.91;100806.66;5074139;28;20052;-63
2023/05/13 09:39:26;;;;;;;8.48;3.70;;;;;;;18.66;52.91;100801.25;5073991;28;20545;-63
2023/05/13 09:41:55;;;;;;;9.43;3.92;;;;;;;18.68;53.54;100806.50;5074091;28;20044;-62
2023/05/13 09:44:23;;;;;;;13.45;3.63;;;;;;;18.70;53.56;100813.50;5074018;28;20102;-63
2023/05/13 09:46:53;;;;;;;12.45;3.95;;;;;;;18.71;53.33;100815.19;5073594;28;20048;-62
2023/05/13 09:49:23;;;;;;;8.32;3.35;;;;;;;18.71;53.30;100801.69;5071896;28;20068;-63
2023/05/13 09:51:51;;;;;;;8.50;3.78;;;;;;;18.70;53.57;100802.69;5071921;28;20049;-62
2023/05/13 09:54:20;;;;;;;8.73;3.63;;;;;;;18.72;52.99;100805.25;5072668;28;20040;-62
2023/05/13 09:56:49;;;;;;;9.20;3.10;;;;;;;18.72;53.44;100806.13;5072218;28;20048;-62
2023/05/13 09:59:17;;;;;;;10.40;3.58;;;;;;;18.73;53.11;100804.28;5072802;28;20128;-62
2023/05/13 10:01:46;;;;;;;8.98;3.28;;;;;;;18.72;53.42;100803.44;5071272;28;20052;-62
2023/05/13 10:04:15;;;;;;;8.70;3.28;;;;;;;18.74;53.14;100801.44;5073226;28;20048;-62
2023/05/13 10:06:45;;;;;;;7.75;3.25;;;;;;;18.73;53.24;100805.16;5073584;28;20056;-62
2023/05/13 10:09:14;;;;;;;10.15;3.55;;;;;;;18.74;53.13;100793.34;5073705;28;20048;-62
2023/05/13 10:11:47;;;;;;;9.18;3.30;;;;;;;18.75;53.17;100792.34;5073410;28;20147;-62
2023/05/13 10:14:15;;;;;;;8.35;3.17;;;;;;;18.75;53.13;100786.94;5073688;28;20052;-63
2023/05/13 10:16:46;;;;;;;9.95;3.47;;;;;;;18.76;53.38;100788.66;5074024;28;20059;-61
2023/05/13 10:19:15;;;;;;;10.63;3.00;;;;;;;18.76;53.17;100794.06;5073274;28;20048;-63
2023/05/13 10:21:44;;;;;;;8.27;3.30;;;;;;;18.77;53.02;100787.66;5073654;28;20044;-63
2023/05/13 10:24:13;;;;;;;6.80;3.00;;;;;;;18.78;53.07;100786.69;5073327;28;20079;-63
2023/05/13 10:26:42;;;;;;;5.97;2.90;;;;;;;18.79;52.97;100785.69;5073196;28;20067;-63
2023/05/13 10:29:13;;;;;;;8.77;3.00;;;;;;;18.80;52.91;100794.66;5073226;28;20451;-63
2023/05/13 10:31:41;;;;;;;9.23;3.10;;;;;;;18.79;53.30;100788.38;5073333;28;20051;-63
2023/05/13 10:34:11;;;;;;;10.07;3.25;;;;;;;18.81;53.26;100791.81;5073205;28;20511;-63
2023/05/13 10:36:51;;;;;;;8.80;3.30;;;;;;;18.82;53.29;100788.16;5073049;28;20048;-63
2023/05/13 10:39:54;;;;;;;8.60;3.20;;;;;;;18.82;53.02;100788.16;5073213;28;20051;-63
2023/05/13 10:42:39;;;;;;;8.10;3.13;;;;;;;18.83;53.03;100789.84;5073191;28;20048;-62
2023/05/13 10:45:09;;;;;;;8.63;3.30;;;;;;;18.83;53.02;100792.56;5072900;28;20048;-61
2023/05/13 10:47:38;;;;;;;6.68;3.13;;;;;;;18.83;53.24;100789.84;5072816;28;20536;-61
2023/05/13 10:50:21;;;;;;;6.45;3.08;;;;;;;18.85;53.22;100795.97;5072719;28;20083;-61
2023/05/13 10:52:51;;;;;;;6.38;2.97;;;;;;;18.85;53.20;100792.41;5072644;28;20063;-62
2023/05/13 10:55:20;;;;;;;7.10;3.30;;;;;;;18.86;52.97;100788.72;5072562;28;20045;-62
2023/05/13 10:58:07;;;;;;;6.88;3.00;;;;;;;18.86;52.94;100796.84;5072636;28;20257;-62
2023/05/13 11:00:37;;;;;;;11.27;3.30;;;;;;;18.86;53.15;100789.59;5072421;28;20048;-61
2023/05/13 11:03:12;;;;;;;7.90;3.20;;;;;;;18.86;52.92;100789.59;5072554;28;20088;-61
2023/05/13 11:05:43;;;;;;;5.70;2.90;;;;;;;18.87;53.08;100796.69;5072365;28;20036;-62
2023/05/13 11:08:35;;;;;;;6.53;2.63;;;;;;;18.86;53.18;100789.59;5072476;28;20124;-62
2023/05/13 11:11:03;;;;;;;7.68;3.10;;;;;;;18.88;53.12;100787.59;5072210;28;20052;-62
2023/05/13 11:13:36;;;;;;;7.70;3.20;;;;;;;18.88;53.22;100784.88;5071994;28;20516;-61
2023/05/13 11:16:12;;;;;;;6.85;3.08;;;;;;;18.88;53.08;100793.00;5072390;28;20048;-61
2023/05/13 11:18:41;;;;;;;9.25;3.05;;;;;;;18.88;53.14;100787.59;5072291;28;20351;-62
2023/05/13 11:21:11;;;;;;;5.85;2.90;;;;;;;18.88;52.88;100786.75;5071990;28;20059;-63
2023/05/13 11:23:53;;;;;;;6.50;2.83;;;;;;;18.88;52.86;100781.34;5072007;28;20045;-62
2023/05/13 11:26:21;;;;;;;7.00;3.25;;;;;;;18.88;53.15;100779.47;5072159;28;20451;-63
2023/05/13 11:28:54;;;;;;;5.88;2.60;;;;;;;18.89;52.98;100783.03;5072212;28;20127;-63
2023/05/13 11:31:25;;;;;;;5.78;2.70;;;;;;;18.87;53.25;100783.19;5072075;28;20139;-62
2023/05/13 11:34:08;;;;;;;5.18;2.63;;;;;;;18.88;53.04;100781.34;5071882;28;20049;-62
2023/05/13 11:36:38;;;;;;;6.03;2.90;;;;;;;18.88;52.81;100786.75;5072395;28;20129;-61